sensor_id;sensor_type;location;lat;lon;timestamp;temperature;humidity
28839;DHT22;15971;50.772;6.100;2022-07-24T00:01:35;20.10;99.90
28839;DHT22;15971;50.772;6.100;2022-07-24T00:04:02;20.10;99.90
28839;DHT22;15971;50.772;6.100;2022-07-24T00:06:27;20.10;99.90
28839;DHT22;15971;50.772;6.100;2022-07-24T00:08:53;20.10;99.90
28839;DHT22;15971;50.772;6.100;2022-07-24T00:11:18;20.10;99.90
28839;DHT22;15971;50.772;6.100;2022-07-24T00:13:44;20.10;99.90
28839;DHT22;15971;50.772;6.100;2022-07-24T00:16:10;20.10;99.90
28839;DHT22;15971;50.772;6.100;2022-07-24T00:18:36;20.00;99.90
28839;DHT22;15971;50.772;6.100;2022-07-24T00:21:02;19.90;99.90
28839;DHT22;15971;50.772;6.100;2022-07-24T00:23:28;19.90;99.90
28839;DHT22;15971;50.772;6.100;2022-07-24T00:25:54;19.70;99.90
28839;DHT22;15971;50.772;6.100;2022-07-24T00:28:20;19.80;99.90
28839;DHT22;15971;50.772;6.100;2022-07-24T00:30:45;19.80;99.90
28839;DHT22;15971;50.772;6.100;2022-07-24T00:33:11;19.80;99.90
28839;DHT22;15971;50.772;6.100;2022-07-24T00:35:37;19.80;99.90
28839;DHT22;15971;50.772;6.100;2022-07-24T00:38:04;19.80;99.90
28839;DHT22;15971;50.772;6.100;2022-07-24T00:40:30;19.80;99.90
28839;DHT22;15971;50.772;6.100;2022-07-24T00:42:56;19.80;99.90
28839;DHT22;15971;50.772;6.100;2022-07-24T00:45:22;19.80;99.90
28839;DHT22;15971;50.772;6.100;2022-07-24T00:47:48;19.80;99.90
28839;DHT22;15971;50.772;6.100;2022-07-24T00:50:13;19.50;99.90
28839;DHT22;15971;50.772;6.100;2022-07-24T00:52:39;19.40;99.90
28839;DHT22;15971;50.772;6.100;2022-07-24T00:55:07;19.60;99.90
28839;DHT22;15971;50.772;6.100;2022-07-24T00:57:33;19.50;99.90
28839;DHT22;15971;50.772;6.100;2022-07-24T00:59:58;19.50;99.90
28839;DHT22;15971;50.772;6.100;2022-07-24T01:02:24;19.60;99.90
28839;DHT22;15971;50.772;6.100;2022-07-24T01:04:50;19.60;99.90
28839;DHT22;15971;50.772;6.100;2022-07-24T01:07:17;19.60;99.90
28839;DHT22;15971;50.772;6.100;2022-07-24T01:09:43;19.60;99.90
28839;DHT22;15971;50.772;6.100;2022-07-24T01:12:09;19.60;99.90
28839;DHT22;15971;50.772;6.100;2022-07-24T01:14:34;19.60;99.90
28839;DHT22;15971;50.772;6.100;2022-07-24T01:17:00;19.60;99.90
28839;DHT22;15971;50.772;6.100;2022-07-24T01:19:26;19.60;99.90
28839;DHT22;15971;50.772;6.100;2022-07-24T01:21:53;19.50;99.90
28839;DHT22;15971;50.772;6.100;2022-07-24T01:24:20;19.50;99.90
28839;DHT22;15971;50.772;6.100;2022-07-24T01:26:46;19.10;99.90
28839;DHT22;15971;50.772;6.100;2022-07-24T01:29:12;19.20;99.90
28839;DHT22;15971;50.772;6.100;2022-07-24T01:31:38;19.30;99.90
28839;DHT22;15971;50.772;6.100;2022-07-24T01:34:03;19.40;99.90
28839;DHT22;15971;50.772;6.100;2022-07-24T01:36:29;19.60;99.90
28839;DHT22;15971;50.772;6.100;2022-07-24T01:38:55;19.60;99.90
28839;DHT22;15971;50.772;6.100;2022-07-24T01:41:21;19.40;99.90
28839;DHT22;15971;50.772;6.100;2022-07-24T01:43:46;19.40;99.90
28839;DHT22;15971;50.772;6.100;2022-07-24T01:46:12;19.40;99.90
28839;DHT22;15971;50.772;6.100;2022-07-24T01:48:39;19.40;99.90
28839;DHT22;15971;50.772;6.100;2022-07-24T01:51:05;19.50;99.90
28839;DHT22;15971;50.772;6.100;2022-07-24T01:53:31;19.40;99.90
28839;DHT22;15971;50.772;6.100;2022-07-24T01:55:56;19.30;99.90
28839;DHT22;15971;50.772;6.100;2022-07-24T01:58:22;19.20;99.90
28839;DHT22;15971;50.772;6.100;2022-07-24T02:00:48;19.20;99.90
28839;DHT22;15971;50.772;6.100;2022-07-24T02:03:13;19.30;99.90
28839;DHT22;15971;50.772;6.100;2022-07-24T02:05:39;19.20;99.90
28839;DHT22;15971;50.772;6.100;2022-07-24T02:08:05;19.20;99.90
28839;DHT22;15971;50.772;6.100;2022-07-24T02:10:31;19.10;99.90
28839;DHT22;15971;50.772;6.100;2022-07-24T02:12:57;19.30;99.90
28839;DHT22;15971;50.772;6.100;2022-07-24T02:15:23;19.30;99.90
28839;DHT22;15971;50.772;6.100;2022-07-24T02:17:51;19.40;99.90
28839;DHT22;15971;50.772;6.100;2022-07-24T02:20:18;19.20;99.90
28839;DHT22;15971;50.772;6.100;2022-07-24T02:22:44;19.30;99.90
28839;DHT22;15971;50.772;6.100;2022-07-24T02:25:10;19.40;99.90
28839;DHT22;15971;50.772;6.100;2022-07-24T02:27:36;19.40;99.90
28839;DHT22;15971;50.772;6.100;2022-07-24T02:30:04;19.40;99.90
28839;DHT22;15971;50.772;6.100;2022-07-24T02:32:29;19.10;99.90
28839;DHT22;15971;50.772;6.100;2022-07-24T02:34:55;18.90;99.90
28839;DHT22;15971;50.772;6.100;2022-07-24T02:37:21;19.00;99.90
28839;DHT22;15971;50.772;6.100;2022-07-24T02:39:46;18.90;99.90
28839;DHT22;15971;50.772;6.100;2022-07-24T02:42:12;19.00;99.90
28839;DHT22;15971;50.772;6.100;2022-07-24T02:44:37;19.00;99.90
28839;DHT22;15971;50.772;6.100;2022-07-24T02:47:03;19.00;99.90
28839;DHT22;15971;50.772;6.100;2022-07-24T02:49:28;19.10;99.90
28839;DHT22;15971;50.772;6.100;2022-07-24T02:51:54;19.20;99.90
28839;DHT22;15971;50.772;6.100;2022-07-24T02:54:20;19.30;99.90
28839;DHT22;15971;50.772;6.100;2022-07-24T02:56:45;19.30;99.90
28839;DHT22;15971;50.772;6.100;2022-07-24T02:59:12;19.20;99.90
28839;DHT22;15971;50.772;6.100;2022-07-24T03:01:37;19.30;99.90
28839;DHT22;15971;50.772;6.100;2022-07-24T03:04:03;19.10;99.90
28839;DHT22;15971;50.772;6.100;2022-07-24T03:06:29;19.10;99.90
28839;DHT22;15971;50.772;6.100;2022-07-24T03:08:54;19.20;99.90
28839;DHT22;15971;50.772;6.100;2022-07-24T03:11:20;19.20;99.90
28839;DHT22;15971;50.772;6.100;2022-07-24T03:13:46;19.30;99.90
28839;DHT22;15971;50.772;6.100;2022-07-24T03:16:11;19.40;99.90
28839;DHT22;15971;50.772;6.100;2022-07-24T03:18:37;19.40;99.90
28839;DHT22;15971;50.772;6.100;2022-07-24T03:21:03;19.40;99.90
28839;DHT22;15971;50.772;6.100;2022-07-24T03:23:28;19.50;99.90
28839;DHT22;15971;50.772;6.100;2022-07-24T03:25:54;19.50;99.90
28839;DHT22;15971;50.772;6.100;2022-07-24T03:28:20;19.50;99.90
28839;DHT22;15971;50.772;6.100;2022-07-24T03:30:46;19.50;99.90
28839;DHT22;15971;50.772;6.100;2022-07-24T03:33:12;19.50;99.90
28839;DHT22;15971;50.772;6.100;2022-07-24T03:35:37;19.60;99.90
28839;DHT22;15971;50.772;6.100;2022-07-24T03:38:03;19.60;99.90
28839;DHT22;15971;50.772;6.100;2022-07-24T03:40:29;19.60;99.90
28839;DHT22;15971;50.772;6.100;2022-07-24T03:42:55;19.60;99.90
28839;DHT22;15971;50.772;6.100;2022-07-24T03:45:20;19.50;99.90
28839;DHT22;15971;50.772;6.100;2022-07-24T03:47:47;19.50;99.90
28839;DHT22;15971;50.772;6.100;2022-07-24T03:50:12;19.40;99.90
28839;DHT22;15971;50.772;6.100;2022-07-24T03:52:38;19.40;99.90
28839;DHT22;15971;50.772;6.100;2022-07-24T03:55:04;19.50;99.90
28839;DHT22;15971;50.772;6.100;2022-07-24T03:57:30;19.50;99.90
28839;DHT22;15971;50.772;6.100;2022-07-24T03:59:55;19.50;99.90
28839;DHT22;15971;50.772;6.100;2022-07-24T04:02:21;19.40;99.90
28839;DHT22;15971;50.772;6.100;2022-07-24T04:04:46;19.50;99.90
28839;DHT22;15971;50.772;6.100;2022-07-24T04:07:12;19.60;99.90
28839;DHT22;15971;50.772;6.100;2022-07-24T04:09:38;19.70;99.90
28839;DHT22;15971;50.772;6.100;2022-07-24T04:12:03;19.80;99.90
28839;DHT22;15971;50.772;6.100;2022-07-24T04:14:29;19.80;99.90
28839;DHT22;15971;50.772;6.100;2022-07-24T04:16:55;19.80;99.90
28839;DHT22;15971;50.772;6.100;2022-07-24T04:19:20;19.90;99.90
28839;DHT22;15971;50.772;6.100;2022-07-24T04:21:46;19.80;99.90
28839;DHT22;15971;50.772;6.100;2022-07-24T04:24:11;20.00;99.90
28839;DHT22;15971;50.772;6.100;2022-07-24T04:26:37;20.00;99.90
28839;DHT22;15971;50.772;6.100;2022-07-24T04:29:03;20.10;99.90
28839;DHT22;15971;50.772;6.100;2022-07-24T04:31:29;20.20;99.90
28839;DHT22;15971;50.772;6.100;2022-07-24T04:33:54;20.10;99.90
28839;DHT22;15971;50.772;6.100;2022-07-24T04:36:20;20.20;99.90
28839;DHT22;15971;50.772;6.100;2022-07-24T04:38:45;20.30;99.90
28839;DHT22;15971;50.772;6.100;2022-07-24T04:41:11;20.20;99.90
28839;DHT22;15971;50.772;6.100;2022-07-24T04:43:37;20.30;99.90
28839;DHT22;15971;50.772;6.100;2022-07-24T04:46:03;20.40;99.90
28839;DHT22;15971;50.772;6.100;2022-07-24T04:48:28;20.70;99.90
28839;DHT22;15971;50.772;6.100;2022-07-24T04:50:54;20.90;99.90
28839;DHT22;15971;50.772;6.100;2022-07-24T04:53:20;21.60;99.90
28839;DHT22;15971;50.772;6.100;2022-07-24T04:55:45;22.00;99.90
28839;DHT22;15971;50.772;6.100;2022-07-24T04:58:11;22.30;99.30
28839;DHT22;15971;50.772;6.100;2022-07-24T05:00:36;22.50;98.40
28839;DHT22;15971;50.772;6.100;2022-07-24T05:03:02;22.50;98.50
28839;DHT22;15971;50.772;6.100;2022-07-24T05:05:28;22.60;98.50
28839;DHT22;15971;50.772;6.100;2022-07-24T05:07:53;22.60;98.40
28839;DHT22;15971;50.772;6.100;2022-07-24T05:10:19;22.70;98.30
28839;DHT22;15971;50.772;6.100;2022-07-24T05:12:44;22.80;98.20
28839;DHT22;15971;50.772;6.100;2022-07-24T05:15:10;22.80;98.30
28839;DHT22;15971;50.772;6.100;2022-07-24T05:17:37;22.90;98.10
28839;DHT22;15971;50.772;6.100;2022-07-24T05:20:04;22.70;98.00
28839;DHT22;15971;50.772;6.100;2022-07-24T05:22:30;22.70;98.10
28839;DHT22;15971;50.772;6.100;2022-07-24T05:24:56;22.50;97.90
28839;DHT22;15971;50.772;6.100;2022-07-24T05:27:22;22.30;98.50
28839;DHT22;15971;50.772;6.100;2022-07-24T05:29:47;22.10;98.50
28839;DHT22;15971;50.772;6.100;2022-07-24T05:32:13;22.10;98.40
28839;DHT22;15971;50.772;6.100;2022-07-24T05:34:39;22.00;99.10
28839;DHT22;15971;50.772;6.100;2022-07-24T05:37:05;22.00;98.70
28839;DHT22;15971;50.772;6.100;2022-07-24T05:39:30;22.00;98.90
28839;DHT22;15971;50.772;6.100;2022-07-24T05:41:56;22.00;99.00
28839;DHT22;15971;50.772;6.100;2022-07-24T05:44:21;22.10;99.00
28839;DHT22;15971;50.772;6.100;2022-07-24T05:46:47;22.10;98.70
28839;DHT22;15971;50.772;6.100;2022-07-24T05:49:13;22.10;98.40
28839;DHT22;15971;50.772;6.100;2022-07-24T05:51:38;22.30;98.40
28839;DHT22;15971;50.772;6.100;2022-07-24T05:54:04;22.30;98.30
28839;DHT22;15971;50.772;6.100;2022-07-24T05:56:30;22.30;98.50
28839;DHT22;15971;50.772;6.100;2022-07-24T05:58:56;22.30;98.80
28839;DHT22;15971;50.772;6.100;2022-07-24T06:01:22;22.30;98.30
28839;DHT22;15971;50.772;6.100;2022-07-24T06:03:48;22.30;97.90
28839;DHT22;15971;50.772;6.100;2022-07-24T06:06:13;22.20;98.00
28839;DHT22;15971;50.772;6.100;2022-07-24T06:08:39;22.00;98.30
28839;DHT22;15971;50.772;6.100;2022-07-24T06:11:05;22.10;98.20
28839;DHT22;15971;50.772;6.100;2022-07-24T06:13:31;22.00;98.10
28839;DHT22;15971;50.772;6.100;2022-07-24T06:15:56;22.00;98.00
28839;DHT22;15971;50.772;6.100;2022-07-24T06:18:22;21.80;98.20
28839;DHT22;15971;50.772;6.100;2022-07-24T06:20:48;21.80;98.40
28839;DHT22;15971;50.772;6.100;2022-07-24T06:23:13;21.90;98.30
28839;DHT22;15971;50.772;6.100;2022-07-24T06:25:39;22.00;98.20
28839;DHT22;15971;50.772;6.100;2022-07-24T06:28:05;22.10;98.20
28839;DHT22;15971;50.772;6.100;2022-07-24T06:30:30;22.30;98.10
28839;DHT22;15971;50.772;6.100;2022-07-24T06:32:58;22.40;98.00
28839;DHT22;15971;50.772;6.100;2022-07-24T06:35:26;22.50;97.70
28839;DHT22;15971;50.772;6.100;2022-07-24T06:37:52;22.50;97.60
28839;DHT22;15971;50.772;6.100;2022-07-24T06:40:19;22.60;97.70
28839;DHT22;15971;50.772;6.100;2022-07-24T06:42:46;22.70;97.20
28839;DHT22;15971;50.772;6.100;2022-07-24T06:45:13;22.60;97.50
28839;DHT22;15971;50.772;6.100;2022-07-24T06:47:39;22.60;97.50
28839;DHT22;15971;50.772;6.100;2022-07-24T06:50:05;22.70;97.70
28839;DHT22;15971;50.772;6.100;2022-07-24T06:52:31;22.80;97.40
28839;DHT22;15971;50.772;6.100;2022-07-24T06:54:57;23.00;97.20
28839;DHT22;15971;50.772;6.100;2022-07-24T06:57:23;23.10;97.20
28839;DHT22;15971;50.772;6.100;2022-07-24T06:59:54;23.10;96.90
28839;DHT22;15971;50.772;6.100;2022-07-24T07:02:20;23.00;97.30
28839;DHT22;15971;50.772;6.100;2022-07-24T07:04:46;23.10;97.10
28839;DHT22;15971;50.772;6.100;2022-07-24T07:07:12;23.10;97.10
28839;DHT22;15971;50.772;6.100;2022-07-24T07:09:39;23.30;97.10
28839;DHT22;15971;50.772;6.100;2022-07-24T07:12:35;23.20;96.90
28839;DHT22;15971;50.772;6.100;2022-07-24T07:15:02;23.10;97.10
28839;DHT22;15971;50.772;6.100;2022-07-24T07:17:28;23.00;97.30
28839;DHT22;15971;50.772;6.100;2022-07-24T07:19:53;23.20;97.20
28839;DHT22;15971;50.772;6.100;2022-07-24T07:22:19;23.10;97.10
28839;DHT22;15971;50.772;6.100;2022-07-24T07:24:44;23.10;97.10
28839;DHT22;15971;50.772;6.100;2022-07-24T07:27:10;23.20;97.00
28839;DHT22;15971;50.772;6.100;2022-07-24T07:29:36;23.20;96.80
28839;DHT22;15971;50.772;6.100;2022-07-24T07:32:01;23.40;96.50
28839;DHT22;15971;50.772;6.100;2022-07-24T07:34:27;23.40;96.70
28839;DHT22;15971;50.772;6.100;2022-07-24T07:36:53;23.60;96.60
28839;DHT22;15971;50.772;6.100;2022-07-24T07:39:18;23.70;96.30
28839;DHT22;15971;50.772;6.100;2022-07-24T07:41:44;23.80;96.40
28839;DHT22;15971;50.772;6.100;2022-07-24T07:44:09;23.80;96.30
28839;DHT22;15971;50.772;6.100;2022-07-24T07:46:35;23.70;96.50
28839;DHT22;15971;50.772;6.100;2022-07-24T07:49:01;23.90;96.30
28839;DHT22;15971;50.772;6.100;2022-07-24T07:51:26;24.00;96.00
28839;DHT22;15971;50.772;6.100;2022-07-24T07:53:52;24.20;95.50
28839;DHT22;15971;50.772;6.100;2022-07-24T07:56:18;24.30;95.80
28839;DHT22;15971;50.772;6.100;2022-07-24T07:58:43;24.30;95.30
28839;DHT22;15971;50.772;6.100;2022-07-24T08:01:09;24.40;95.40
28839;DHT22;15971;50.772;6.100;2022-07-24T08:03:35;24.30;95.40
28839;DHT22;15971;50.772;6.100;2022-07-24T08:06:00;24.40;95.10
28839;DHT22;15971;50.772;6.100;2022-07-24T08:08:26;24.40;95.10
28839;DHT22;15971;50.772;6.100;2022-07-24T08:10:52;24.50;94.90
28839;DHT22;15971;50.772;6.100;2022-07-24T08:13:18;24.60;94.70
28839;DHT22;15971;50.772;6.100;2022-07-24T08:15:45;24.60;94.80
28839;DHT22;15971;50.772;6.100;2022-07-24T08:18:10;24.70;94.90
28839;DHT22;15971;50.772;6.100;2022-07-24T08:20:36;24.70;94.80
28839;DHT22;15971;50.772;6.100;2022-07-24T08:23:02;24.70;94.60
28839;DHT22;15971;50.772;6.100;2022-07-24T08:25:27;24.70;94.40
28839;DHT22;15971;50.772;6.100;2022-07-24T08:27:53;24.70;94.30
28839;DHT22;15971;50.772;6.100;2022-07-24T08:30:19;24.90;94.70
28839;DHT22;15971;50.772;6.100;2022-07-24T08:32:45;24.90;94.40
28839;DHT22;15971;50.772;6.100;2022-07-24T08:35:11;25.00;94.50
28839;DHT22;15971;50.772;6.100;2022-07-24T08:37:41;25.10;94.30
28839;DHT22;15971;50.772;6.100;2022-07-24T08:40:08;25.20;94.60
28839;DHT22;15971;50.772;6.100;2022-07-24T08:42:35;25.30;94.30
28839;DHT22;15971;50.772;6.100;2022-07-24T08:45:03;25.50;94.30
28839;DHT22;15971;50.772;6.100;2022-07-24T08:47:30;25.60;94.10
28839;DHT22;15971;50.772;6.100;2022-07-24T08:49:58;25.60;94.10
28839;DHT22;15971;50.772;6.100;2022-07-24T08:52:24;25.60;94.20
28839;DHT22;15971;50.772;6.100;2022-07-24T08:54:50;25.60;94.40
28839;DHT22;15971;50.772;6.100;2022-07-24T08:57:16;25.80;94.00
28839;DHT22;15971;50.772;6.100;2022-07-24T08:59:42;25.80;94.20
28839;DHT22;15971;50.772;6.100;2022-07-24T09:02:08;25.90;94.00
28839;DHT22;15971;50.772;6.100;2022-07-24T09:04:42;26.00;94.20
28839;DHT22;15971;50.772;6.100;2022-07-24T09:07:14;25.90;93.80
28839;DHT22;15971;50.772;6.100;2022-07-24T09:09:41;25.90;94.00
28839;DHT22;15971;50.772;6.100;2022-07-24T09:12:15;25.80;94.20
28839;DHT22;15971;50.772;6.100;2022-07-24T09:14:44;25.80;94.40
28839;DHT22;15971;50.772;6.100;2022-07-24T09:17:18;26.00;93.80
28839;DHT22;15971;50.772;6.100;2022-07-24T09:19:55;26.20;93.80
28839;DHT22;15971;50.772;6.100;2022-07-24T09:22:39;26.20;93.70
28839;DHT22;15971;50.772;6.100;2022-07-24T09:25:20;26.30;93.30
28839;DHT22;15971;50.772;6.100;2022-07-24T09:28:04;26.40;93.10
28839;DHT22;15971;50.772;6.100;2022-07-24T09:30:41;26.50;93.20
28839;DHT22;15971;50.772;6.100;2022-07-24T09:33:15;26.40;93.30
28839;DHT22;15971;50.772;6.100;2022-07-24T09:35:51;26.40;92.80
28839;DHT22;15971;50.772;6.100;2022-07-24T09:38:19;26.50;93.00
28839;DHT22;15971;50.772;6.100;2022-07-24T09:40:49;26.60;92.30
28839;DHT22;15971;50.772;6.100;2022-07-24T09:43:27;26.60;92.20
28839;DHT22;15971;50.772;6.100;2022-07-24T09:46:03;26.70;92.30
28839;DHT22;15971;50.772;6.100;2022-07-24T09:48:37;26.80;91.70
28839;DHT22;15971;50.772;6.100;2022-07-24T09:51:15;26.90;91.80
28839;DHT22;15971;50.772;6.100;2022-07-24T09:53:42;26.90;91.80
28839;DHT22;15971;50.772;6.100;2022-07-24T09:58:39;27.10;90.60
28839;DHT22;15971;50.772;6.100;2022-07-24T10:01:07;27.20;90.60
28839;DHT22;15971;50.772;6.100;2022-07-24T10:03:36;27.20;90.30
28839;DHT22;15971;50.772;6.100;2022-07-24T10:06:06;27.20;89.20
28839;DHT22;15971;50.772;6.100;2022-07-24T10:08:34;27.20;89.80
28839;DHT22;15971;50.772;6.100;2022-07-24T10:11:00;27.30;89.40
28839;DHT22;15971;50.772;6.100;2022-07-24T10:13:27;27.40;89.30
28839;DHT22;15971;50.772;6.100;2022-07-24T10:16:19;27.20;91.80
28839;DHT22;15971;50.772;6.100;2022-07-24T10:18:54;27.10;90.20
28839;DHT22;15971;50.772;6.100;2022-07-24T10:21:24;26.90;89.50
28839;DHT22;15971;50.772;6.100;2022-07-24T10:26:35;27.10;90.00
28839;DHT22;15971;50.772;6.100;2022-07-24T10:29:11;27.00;89.70
28839;DHT22;15971;50.772;6.100;2022-07-24T10:31:38;27.10;90.20
28839;DHT22;15971;50.772;6.100;2022-07-24T10:34:27;27.10;90.00
28839;DHT22;15971;50.772;6.100;2022-07-24T10:42:25;27.20;88.70
28839;DHT22;15971;50.772;6.100;2022-07-24T10:47:39;27.10;87.80
28839;DHT22;15971;50.772;6.100;2022-07-24T10:50:05;27.00;87.90
28839;DHT22;15971;50.772;6.100;2022-07-24T10:52:32;27.00;88.00
28839;DHT22;15971;50.772;6.100;2022-07-24T10:55:33;27.20;87.10
28839;DHT22;15971;50.772;6.100;2022-07-24T10:58:13;27.40;87.10
28839;DHT22;15971;50.772;6.100;2022-07-24T11:00:46;27.40;86.70
28839;DHT22;15971;50.772;6.100;2022-07-24T11:03:26;27.50;86.50
28839;DHT22;15971;50.772;6.100;2022-07-24T11:11:13;27.60;86.60
28839;DHT22;15971;50.772;6.100;2022-07-24T11:13:41;27.50;86.70
28839;DHT22;15971;50.772;6.100;2022-07-24T11:18:42;27.40;86.80
28839;DHT22;15971;50.772;6.100;2022-07-24T11:21:35;27.30;86.70
28839;DHT22;15971;50.772;6.100;2022-07-24T11:26:40;27.40;85.80
28839;DHT22;15971;50.772;6.100;2022-07-24T11:29:29;27.50;85.60
28839;DHT22;15971;50.772;6.100;2022-07-24T11:31:58;27.70;85.10
28839;DHT22;15971;50.772;6.100;2022-07-24T11:34:25;27.70;83.70
28839;DHT22;15971;50.772;6.100;2022-07-24T11:36:52;27.60;84.20
28839;DHT22;15971;50.772;6.100;2022-07-24T11:39:19;27.60;83.60
28839;DHT22;15971;50.772;6.100;2022-07-24T11:41:53;27.60;83.40
28839;DHT22;15971;50.772;6.100;2022-07-24T11:44:27;27.70;83.40
28839;DHT22;15971;50.772;6.100;2022-07-24T11:47:00;27.80;83.20
28839;DHT22;15971;50.772;6.100;2022-07-24T11:49:27;27.80;82.50
28839;DHT22;15971;50.772;6.100;2022-07-24T11:51:54;27.70;82.80
28839;DHT22;15971;50.772;6.100;2022-07-24T11:54:25;27.60;83.00
28839;DHT22;15971;50.772;6.100;2022-07-24T11:56:53;27.50;82.80
28839;DHT22;15971;50.772;6.100;2022-07-24T11:59:27;27.60;82.40
28839;DHT22;15971;50.772;6.100;2022-07-24T12:02:10;27.80;81.50
28839;DHT22;15971;50.772;6.100;2022-07-24T12:04:38;27.90;81.20
28839;DHT22;15971;50.772;6.100;2022-07-24T12:07:09;27.90;82.00
28839;DHT22;15971;50.772;6.100;2022-07-24T12:09:50;28.00;81.10
28839;DHT22;15971;50.772;6.100;2022-07-24T12:17:29;27.90;81.20
28839;DHT22;15971;50.772;6.100;2022-07-24T12:19:57;27.80;81.70
28839;DHT22;15971;50.772;6.100;2022-07-24T12:22:24;27.90;81.70
28839;DHT22;15971;50.772;6.100;2022-07-24T12:24:51;27.80;82.20
28839;DHT22;15971;50.772;6.100;2022-07-24T12:27:35;27.90;80.80
28839;DHT22;15971;50.772;6.100;2022-07-24T12:30:02;27.80;81.50
28839;DHT22;15971;50.772;6.100;2022-07-24T12:32:28;27.90;80.80
28839;DHT22;15971;50.772;6.100;2022-07-24T12:34:54;27.80;78.80
28839;DHT22;15971;50.772;6.100;2022-07-24T12:37:22;27.90;79.40
28839;DHT22;15971;50.772;6.100;2022-07-24T12:39:49;27.80;79.50
28839;DHT22;15971;50.772;6.100;2022-07-24T12:42:16;27.90;79.00
28839;DHT22;15971;50.772;6.100;2022-07-24T12:44:43;28.10;79.50
28839;DHT22;15971;50.772;6.100;2022-07-24T12:47:10;28.10;78.00
28839;DHT22;15971;50.772;6.100;2022-07-24T12:49:46;28.00;78.30
28839;DHT22;15971;50.772;6.100;2022-07-24T12:52:21;28.00;78.70
28839;DHT22;15971;50.772;6.100;2022-07-24T12:54:49;28.00;78.40
28839;DHT22;15971;50.772;6.100;2022-07-24T12:57:15;28.10;78.90
28839;DHT22;15971;50.772;6.100;2022-07-24T12:59:46;28.10;78.70
28839;DHT22;15971;50.772;6.100;2022-07-24T13:02:19;28.30;78.50
28839;DHT22;15971;50.772;6.100;2022-07-24T13:04:48;28.20;77.80
28839;DHT22;15971;50.772;6.100;2022-07-24T13:07:15;28.20;78.10
28839;DHT22;15971;50.772;6.100;2022-07-24T13:09:41;28.30;78.40
28839;DHT22;15971;50.772;6.100;2022-07-24T13:12:08;28.40;78.30
28839;DHT22;15971;50.772;6.100;2022-07-24T13:14:34;28.40;77.90
28839;DHT22;15971;50.772;6.100;2022-07-24T13:17:08;28.30;77.60
28839;DHT22;15971;50.772;6.100;2022-07-24T13:19:39;28.40;78.10
28839;DHT22;15971;50.772;6.100;2022-07-24T13:22:05;28.40;78.20
28839;DHT22;15971;50.772;6.100;2022-07-24T13:24:30;28.30;77.10
28839;DHT22;15971;50.772;6.100;2022-07-24T13:26:58;28.30;77.60
28839;DHT22;15971;50.772;6.100;2022-07-24T13:29:24;28.40;77.70
28839;DHT22;15971;50.772;6.100;2022-07-24T13:31:51;28.40;76.90
28839;DHT22;15971;50.772;6.100;2022-07-24T13:34:17;28.40;77.70
28839;DHT22;15971;50.772;6.100;2022-07-24T13:36:43;28.40;77.40
28839;DHT22;15971;50.772;6.100;2022-07-24T13:39:09;28.50;77.50
28839;DHT22;15971;50.772;6.100;2022-07-24T13:41:35;28.50;77.10
28839;DHT22;15971;50.772;6.100;2022-07-24T13:44:02;28.60;77.30
28839;DHT22;15971;50.772;6.100;2022-07-24T13:46:29;28.50;76.60
28839;DHT22;15971;50.772;6.100;2022-07-24T13:48:55;28.60;77.30
28839;DHT22;15971;50.772;6.100;2022-07-24T13:51:21;28.70;77.10
28839;DHT22;15971;50.772;6.100;2022-07-24T13:53:46;28.70;77.30
28839;DHT22;15971;50.772;6.100;2022-07-24T13:56:13;28.70;77.20
28839;DHT22;15971;50.772;6.100;2022-07-24T13:58:38;28.70;76.90
28839;DHT22;15971;50.772;6.100;2022-07-24T14:01:05;28.70;76.80
28839;DHT22;15971;50.772;6.100;2022-07-24T14:03:32;28.70;77.50
28839;DHT22;15971;50.772;6.100;2022-07-24T14:05:58;28.70;77.90
28839;DHT22;15971;50.772;6.100;2022-07-24T14:08:23;28.70;78.00
28839;DHT22;15971;50.772;6.100;2022-07-24T14:10:49;28.70;79.20
28839;DHT22;15971;50.772;6.100;2022-07-24T14:13:15;28.70;77.10
28839;DHT22;15971;50.772;6.100;2022-07-24T14:15:41;28.70;77.80
28839;DHT22;15971;50.772;6.100;2022-07-24T14:18:06;28.60;77.50
28839;DHT22;15971;50.772;6.100;2022-07-24T14:20:32;28.70;78.30
28839;DHT22;15971;50.772;6.100;2022-07-24T14:22:58;28.70;77.50
28839;DHT22;15971;50.772;6.100;2022-07-24T14:25:24;28.80;76.80
28839;DHT22;15971;50.772;6.100;2022-07-24T14:27:49;28.90;77.20
28839;DHT22;15971;50.772;6.100;2022-07-24T14:30:15;28.90;76.20
28839;DHT22;15971;50.772;6.100;2022-07-24T14:32:40;28.90;75.80
28839;DHT22;15971;50.772;6.100;2022-07-24T14:35:08;28.80;76.60
28839;DHT22;15971;50.772;6.100;2022-07-24T14:37:35;28.80;76.80
28839;DHT22;15971;50.772;6.100;2022-07-24T14:40:01;28.90;75.60
28839;DHT22;15971;50.772;6.100;2022-07-24T14:42:27;29.10;75.40
28839;DHT22;15971;50.772;6.100;2022-07-24T14:44:52;29.20;94.70
28839;DHT22;15971;50.772;6.100;2022-07-24T14:47:18;29.10;94.90
28839;DHT22;15971;50.772;6.100;2022-07-24T14:49:44;29.10;94.80
28839;DHT22;15971;50.772;6.100;2022-07-24T14:52:09;29.10;94.40
28839;DHT22;15971;50.772;6.100;2022-07-24T14:54:35;29.10;94.70
28839;DHT22;15971;50.772;6.100;2022-07-24T14:57:00;29.00;94.60
28839;DHT22;15971;50.772;6.100;2022-07-24T14:59:27;29.10;94.60
28839;DHT22;15971;50.772;6.100;2022-07-24T15:01:52;29.10;95.00
28839;DHT22;15971;50.772;6.100;2022-07-24T15:04:18;28.90;95.10
28839;DHT22;15971;50.772;6.100;2022-07-24T15:06:43;28.90;95.10
28839;DHT22;15971;50.772;6.100;2022-07-24T15:09:09;29.10;94.90
28839;DHT22;15971;50.772;6.100;2022-07-24T15:11:36;29.10;95.00
28839;DHT22;15971;50.772;6.100;2022-07-24T15:14:03;29.20;95.00
28839;DHT22;15971;50.772;6.100;2022-07-24T15:16:29;28.80;95.00
28839;DHT22;15971;50.772;6.100;2022-07-24T15:18:55;29.00;95.30
28839;DHT22;15971;50.772;6.100;2022-07-24T15:21:20;29.00;95.30
28839;DHT22;15971;50.772;6.100;2022-07-24T15:23:46;28.90;95.40
28839;DHT22;15971;50.772;6.100;2022-07-24T15:26:11;28.90;95.50
28839;DHT22;15971;50.772;6.100;2022-07-24T15:28:37;28.80;95.30
28839;DHT22;15971;50.772;6.100;2022-07-24T15:31:03;28.90;95.60
28839;DHT22;15971;50.772;6.100;2022-07-24T15:33:28;28.80;95.80
28839;DHT22;15971;50.772;6.100;2022-07-24T15:35:54;28.80;95.50
28839;DHT22;15971;50.772;6.100;2022-07-24T15:38:19;28.90;95.60
28839;DHT22;15971;50.772;6.100;2022-07-24T15:40:45;28.90;95.80
28839;DHT22;15971;50.772;6.100;2022-07-24T15:43:11;29.00;95.70
28839;DHT22;15971;50.772;6.100;2022-07-24T15:45:38;29.00;95.60
28839;DHT22;15971;50.772;6.100;2022-07-24T15:48:04;28.90;95.80
28839;DHT22;15971;50.772;6.100;2022-07-24T15:50:29;28.90;96.00
28839;DHT22;15971;50.772;6.100;2022-07-24T15:52:55;29.00;95.90
28839;DHT22;15971;50.772;6.100;2022-07-24T15:55:21;28.90;96.30
28839;DHT22;15971;50.772;6.100;2022-07-24T15:57:47;28.90;95.80
28839;DHT22;15971;50.772;6.100;2022-07-24T16:00:14;29.30;95.40